• Join FlightAware (Why Join?)
  • Login
  • US Flag 
11:07PM EDT


 

Airport Tracker/Info


-or-


 

Live Flight TrackerFlight Track Log ✈ UPS110 ✈ 18-Aug-2013 ✈ KSDF - PANC

Flight Track Log - Related Links

Times and Time Zones

All times are in EDT time to prevent confusion due to time zone crossing. See the UPS110 flight status page for this flight to view local times or setup timezone preferences in your user account.

Time Position Orientation Groundspeed Altitude Reporting Facility
EDT Latitude Longitude Course Direction KTS MPH feet Rate Location/Type
02:23AM 38.1780 -85.7280 38° Northeast 135 155  Level FlightAware
02:23AM 38.1580 -85.7210 165° South 167 192 1,400 3,120 Climbing FlightAware
02:24AM 38.1490 -85.7190 170° South 169 194 2,000 2,220 Climbing FlightAware
02:24AM 38.1320 -85.7150 170° South 197 227 2,600 1,500 Climbing FlightAware
02:24AM 38.1070 -85.7090 169° South 235 270 3,100 1,620 Climbing FlightAware
02:25AM 38.0950 -85.7060 169° South 242 278 3,600 2,220 Climbing FlightAware
02:25AM 38.0530 -85.7160 191° South 275 316 4,900 2,220 Climbing FlightAware
02:25AM 38.0490 -85.7200 218° Southwest 278 320 5,100 3,000 Climbing FlightAware
02:25AM 38.0430 -85.7300 233° Southwest 280 322 5,500 2,580 Climbing FlightAware
02:25AM 38.0380 -85.7420 242° Southwest 283 326 5,800 2,580 Climbing FlightAware
02:26AM 38.0350 -85.7550 254° West 284 327 6,200 2,520 Climbing FlightAware
02:26AM 38.0350 -85.7640 270° West 285 328 6,400 2,580 Climbing FlightAware
02:26AM 38.0450 -85.8020 288° West 289 333 7,500 2,640 Climbing FlightAware
02:26AM 38.0560 -85.8150 317° Northwest 288 331 8,000 2,640 Climbing FlightAware
02:26AM 38.0650 -85.8210 332° Northwest 286 329 8,300 3,000 Climbing FlightAware
02:27AM 38.0800 -85.8320 330° Northwest 285 328 9,000 2,640 Climbing FlightAware
02:27AM 38.1020 -85.8520 324° Northwest 292 336 9,800 1,800 Climbing FlightAware
02:28AM 38.1390 -85.8930 319° Northwest 319 367 10,700 1,380 Climbing FlightAware
02:28AM 38.1830 -85.9400 320° Northwest 361 415 11,500 1,800 Climbing FlightAware
02:29AM 38.2320 -85.9890 322° Northwest 384 442 12,900 2,700 Climbing FlightAware
02:29AM 38.2780 -86.0340 322° Northwest 393 452 14,600 3,060 Climbing FlightAware
02:30AM 38.3340 -86.0890 322° Northwest 403 464 16,500 2,820 Climbing FlightAware
02:31AM 38.3880 -86.1430 322° Northwest 415 478 18,100 2,520 Climbing FlightAware
02:31AM 38.4370 -86.1910 323° Northwest 426 490 19,400 2,460 Climbing FlightAware
02:32AM 38.4900 -86.2500 319° Northwest 434 499 20,900 2,340 Climbing FlightAware
02:32AM 38.5380 -86.3060 318° Northwest 444 511 22,100 2,280 Climbing FlightAware
02:33AM 38.5920 -86.3720 316° Northwest 451 519 23,500 2,340 Climbing FlightAware
02:33AM 38.6510 -86.4430 317° Northwest 456 525 25,000 2,220 Climbing FlightAware
02:34AM 38.6990 -86.5020 316° Northwest 460 529 26,100 1,980 Climbing FlightAware
02:35AM 38.7550 -86.5710 316° Northwest 466 536 27,300 1,860 Climbing FlightAware
02:35AM 38.8110 -86.6390 317° Northwest 471 542 28,400 1,740 Climbing FlightAware
02:36AM 38.8620 -86.7010 317° Northwest 477 549 29,300 1,860 Climbing FlightAware
02:36AM 38.9100 -86.7590 317° Northwest 477 549 30,300 1,860 Climbing FlightAware
02:37AM 38.9680 -86.8300 316° Northwest 475 547 31,500 1,800 Climbing FlightAware
02:37AM 39.0370 -86.9140 317° Northwest 477 549 32,700 1,680 Climbing FlightAware
02:38AM 39.0930 -86.9830 316° Northwest 476 548 33,600 1,140 Climbing FlightAware
02:39AM 39.1440 -87.0460 316° Northwest 473 544 34,000 300 Climbing FlightAware
02:39AM 39.2010 -87.1160 316° Northwest 468 539 34,000  Level FlightAware
02:40AM 39.2570 -87.1860 316° Northwest 466 536 34,000  Level FlightAware
02:40AM 39.3090 -87.2500 316° Northwest 465 535 34,000  Level FlightAware
02:41AM 39.3600 -87.3140 316° Northwest 466 536 34,000  Level FlightAware
02:42AM 39.4160 -87.3830 316° Northwest 466 536 34,000  Level FlightAware
02:42AM 39.4750 -87.4560 316° Northwest 462 532 34,000  Level FlightAware
02:43AM 39.5240 -87.5180 316° Northwest 454 522 34,000  Level FlightAware
02:43AM 39.5770 -87.5840 316° Northwest 451 519 34,000  Level FlightAware
02:44AM 39.6310 -87.6520 316° Northwest 451 519 34,000  Level FlightAware
02:44AM 39.6770 -87.7110 315° West 449 517 34,000  Level FlightAware
02:45AM 39.7330 -87.7800 317° Northwest 450 518 34,000  Level FlightAware
02:46AM 39.7890 -87.8510 316° Northwest 453 521 34,000  Level FlightAware
02:46AM 39.8440 -87.9210 316° Northwest 455 524 34,000  Level FlightAware
02:47AM 39.8910 -87.9810 316° Northwest 454 522 34,000  Level FlightAware
02:47AM 39.9440 -88.0480 316° Northwest 455 524 34,000  Level FlightAware
02:48AM 39.9990 -88.1190 315° West 456 525 34,000  Level FlightAware
02:49AM 40.0480 -88.1810 316° Northwest 458 527 34,000  Level FlightAware
02:49AM 40.1030 -88.2510 316° Northwest 458 527 34,000  Level FlightAware
02:50AM 40.1600 -88.3250 315° West 460 529 34,000  Level FlightAware
02:50AM 40.2080 -88.3870 315° West 460 529 34,000  Level FlightAware
02:51AM 40.2630 -88.4570 316° Northwest 461 531 34,000  Level FlightAware
02:51AM 40.3110 -88.5200 315° West 462 532 34,000  Level FlightAware
02:52AM 40.3670 -88.5930 315° West 463 533 34,000  Level FlightAware
02:53AM 40.4210 -88.6620 316° Northwest 463 533 34,000  Level FlightAware
02:53AM 40.4760 -88.7330 316° Northwest 463 533 34,000  Level FlightAware
02:54AM 40.5310 -88.8050 315° West 463 533 34,000  Level FlightAware
02:54AM 40.5790 -88.8690 315° West 461 531 34,000  Level FlightAware
02:55AM 40.6360 -88.9440 315° West 461 531 34,000  Level FlightAware
02:56AM 40.6850 -89.0070 316° Northwest 460 529 34,000  Level FlightAware
02:56AM 40.7390 -89.0790 315° West 458 527 34,000  Level FlightAware
02:57AM 40.7920 -89.1490 315° West 456 525 34,000  Level FlightAware
02:57AM 40.8470 -89.2220 315° West 455 524 34,000  Level FlightAware
02:58AM 40.8930 -89.2840 314° West 454 522 34,000  Level FlightAware
02:58AM 40.9470 -89.3550 315° West 452 520 34,000  Level FlightAware
02:59AM 40.9990 -89.4240 315° West 452 520 34,000  Level FlightAware
03:00AM 41.0490 -89.4910 315° West 451 519 34,000  Level FlightAware
03:00AM 41.1020 -89.5630 314° West 450 518 34,000  Level FlightAware
03:01AM 41.1550 -89.6330 315° West 451 519 34,000  Level FlightAware
03:01AM 41.2070 -89.7030 315° West 451 519 34,000  Level FlightAware
03:02AM 41.2540 -89.7660 315° West 451 519 34,000  Level FlightAware
03:03AM 41.3070 -89.8380 314° West 451 519 34,000  Level FlightAware
03:03AM 41.3590 -89.9090 314° West 452 520 34,000  Level FlightAware
03:04AM 41.4060 -89.9730 314° West 451 519 34,000  Level FlightAware
03:04AM 41.4580 -90.0440 314° West 451 519 34,000  Level FlightAware
03:05AM 41.5110 -90.1160 315° West 450 518 34,000  Level FlightAware
03:05AM 41.5640 -90.1880 315° West 449 517 34,000  Level FlightAware
03:06AM 41.6090 -90.2500 314° West 448 516 34,000  Level FlightAware
03:07AM 41.6610 -90.3220 314° West 447 514 34,000  Level FlightAware
03:07AM 41.7130 -90.3940 314° West 447 514 34,000  Level FlightAware
03:08AM 41.7650 -90.4650 314° West 446 513 34,000  Level FlightAware
03:08AM 41.8100 -90.5280 314° West 446 513 34,000  Level FlightAware
03:09AM 41.8630 -90.6010 314° West 446 513 34,000  Level FlightAware
03:10AM 41.9130 -90.6710 314° West 445 512 34,000  Level FlightAware
03:10AM 41.9640 -90.7430 314° West 444 511 34,000  Level FlightAware
03:11AM 42.0090 -90.8050 314° West 444 511 34,000  Level FlightAware
03:11AM 42.0580 -90.8740 314° West 444 511 34,000  Level FlightAware
03:12AM 42.1100 -90.9470 314° West 444 511 34,000  Level FlightAware
03:12AM 42.1610 -91.0200 313° West 444 511 34,000  Level FlightAware
03:13AM 42.2120 -91.0900 315° West 444 511 34,000  Level FlightAware
03:14AM 42.2630 -91.1630 313° West 444 511 34,000  Level FlightAware
03:14AM 42.3080 -91.2270 314° West 445 512 34,000  Level FlightAware
03:15AM 42.3540 -91.2920 314° West 445 512 34,000  Level FlightAware
03:15AM 42.4110 -91.3740 313° West 445 512 34,000  Level FlightAware
03:16AM 42.4610 -91.4450 314° West 445 512 34,000  Level FlightAware
03:17AM 42.5060 -91.5110 313° West 444 511 34,000  Level FlightAware
03:17AM 42.5570 -91.5840 313° West 444 511 34,000  Level FlightAware
03:18AM 42.6100 -91.6600 313° West 444 511 34,000  Level FlightAware
03:18AM 42.6550 -91.7250 313° West 443 510 34,000  Level FlightAware
03:19AM 42.7060 -91.7980 314° West 443 510 34,000  Level FlightAware
03:19AM 42.7540 -91.8680 313° West 443 510 34,000  Level FlightAware
03:20AM 42.8060 -91.9440 313° West 443 510 34,000  Level FlightAware
03:21AM 42.8510 -92.0100 313° West 443 510 34,000  Level FlightAware
03:21AM 42.9010 -92.0830 313° West 443 510 34,000  Level FlightAware
03:22AM 42.9520 -92.1570 313° West 443 510 34,000  Level FlightAware
03:22AM 43.0020 -92.2310 313° West 443 510 34,000  Level FlightAware
03:23AM 43.0480 -92.2980 313° West 443 510 34,000  Level FlightAware
03:24AM 43.0980 -92.3730 312° West 444 511 34,000  Level FlightAware
03:24AM 43.1420 -92.4370 313° West 444 511 34,000  Level FlightAware
03:25AM 43.1930 -92.5130 313° West 444 511 34,000  Level FlightAware
03:25AM 43.2420 -92.5870 312° West 444 511 34,000  Level FlightAware
03:26AM 43.2960 -92.6670 313° West 444 511 34,000  Level FlightAware
03:26AM 43.3370 -92.7280 313° West 444 511 34,000  Level FlightAware
03:27AM 43.3900 -92.8080 312° West 443 510 34,000  Level FlightAware
03:28AM 43.4380 -92.8810 312° West 442 509 34,000  Level FlightAware
03:28AM 43.4800 -92.9440 313° West 441 507 34,000  Level FlightAware
03:29AM 43.5290 -93.0180 312° West 439 505 34,000  Level FlightAware
03:29AM 43.5800 -93.0940 313° West 438 504 34,000  Level FlightAware
03:30AM 43.6320 -93.1730 312° West 436 502 34,000  Level FlightAware
03:31AM 43.6730 -93.2360 312° West 436 502 34,000  Level FlightAware
03:31AM 43.7230 -93.3130 312° West 436 502 34,000  Level FlightAware
03:32AM 43.7700 -93.3850 312° West 435 501 34,000  Level FlightAware
03:32AM 43.8200 -93.4610 312° West 434 499 34,000  Level FlightAware
03:33AM 43.8620 -93.5260 312° West 434 499 34,000  Level FlightAware
03:33AM 43.9110 -93.6020 312° West 433 498 34,000  Level FlightAware
03:34AM 43.9590 -93.6760 312° West 433 498 34,000  Level FlightAware
03:35AM 44.0030 -93.7440 312° West 433 498 34,000  Level FlightAware
03:35AM 44.0510 -93.8180 312° West 433 498 34,000  Level FlightAware
03:36AM 44.0990 -93.8930 312° West 433 498 34,000  Level FlightAware
03:36AM 44.1420 -93.9600 312° West 433 498 34,000  Level FlightAware
03:37AM 44.1890 -94.0340 312° West 433 498 34,000  Level FlightAware
03:38AM 44.2370 -94.1090 312° West 434 499 34,000  Level FlightAware
03:38AM 44.2870 -94.1880 311° West 434 499 34,000  Level FlightAware
03:39AM 44.3300 -94.2560 311° West 434 499 34,000  Level FlightAware
03:39AM 44.3770 -94.3300 312° West 434 499 34,000  Level FlightAware
03:40AM 44.4220 -94.4020 311° West 433 498 34,000  Level FlightAware
03:41AM 44.4730 -94.4840 311° West 434 499 34,000  Level FlightAware
03:41AM 44.5120 -94.5460 311° West 434 499 34,000  Level FlightAware
03:42AM 44.5650 -94.6300 312° West 433 498 34,000  Level FlightAware
03:42AM 44.6050 -94.6950 311° West 433 498 34,000  Level FlightAware
03:43AM 44.6530 -94.7710 312° West 432 497 34,000  Level FlightAware
03:43AM 44.7010 -94.8480 311° West 431 496 34,000  Level FlightAware
03:44AM 44.7490 -94.9260 311° West 431 496 34,000  Level FlightAware
03:45AM 44.7900 -94.9930 311° West 430 495 34,000  Level FlightAware
03:45AM 44.8380 -95.0700 311° West 429 494 34,000  Level FlightAware
03:46AM 44.8840 -95.1460 311° West 429 494 34,000  Level FlightAware
03:46AM 44.9260 -95.2140 311° West 428 493 34,000  Level FlightAware
03:47AM 44.9740 -95.2940 310° West 428 493 34,000  Level FlightAware
03:48AM 45.0200 -95.3690 311° West 428 493 34,000  Level FlightAware
03:48AM 45.0620 -95.4370 311° West 428 493 34,000  Level FlightAware
03:49AM 45.1060 -95.5110 310° West 428 493 34,000  Level FlightAware
03:49AM 45.1540 -95.5910 310° West 428 493 34,000  Level FlightAware
03:50AM 45.1950 -95.6580 311° West 428 493 34,000  Level FlightAware
03:50AM 45.2410 -95.7340 311° West 428 493 34,000  Level FlightAware
03:51AM 45.2870 -95.8120 310° West 428 493 34,000  Level FlightAware
03:52AM 45.3500 -95.9160 311° West 427 491 34,000  Level FlightAware
03:52AM 45.3980 -95.9970 310° West 427 491 34,000  Level FlightAware
03:53AM 45.4380 -96.0640 310° West 427 491 34,000  Level FlightAware
03:54AM 45.4830 -96.1410 310° West 427 491 34,000  Level FlightAware
03:54AM 45.5300 -96.2190 311° West 426 490 34,000  Level FlightAware
03:55AM 45.5790 -96.3030 310° West 426 490 34,000  Level FlightAware
03:55AM 45.6260 -96.3840 310° West 427 491 34,000  Level FlightAware
03:56AM 45.6670 -96.4530 310° West 426 490 34,000  Level FlightAware
03:57AM 45.7150 -96.5330 311° West 426 490 34,000  Level FlightAware
03:57AM 45.7610 -96.6140 309° West 426 490 34,000  Level FlightAware
03:58AM 45.8050 -96.6910 309° West 424 488 34,000  Level FlightAware
03:58AM 45.8450 -96.7600 310° West 424 488 34,000  Level FlightAware
03:59AM 45.8900 -96.8370 310° West 424 488 34,000  Level FlightAware
04:00AM 45.9330 -96.9120 310° West 424 488 34,000  Level FlightAware
04:00AM 45.9750 -96.9850 310° West 424 488 34,000  Level FlightAware
04:01AM 46.0220 -97.0680 309° West 424 488 34,000  Level FlightAware
04:01AM 46.0670 -97.1460 310° West 424 488 34,000  Level FlightAware
04:02AM 46.1070 -97.2160 310° West 424 488 34,000  Level FlightAware
04:02AM 46.1510 -97.2940 309° West 424 488 34,000  Level FlightAware
04:03AM 46.1960 -97.3720 310° West 423 487 34,000  Level FlightAware
04:04AM 46.2350 -97.4410 309° West 423 487 34,000  Level FlightAware
04:04AM 46.2740 -97.5120 308° West 423 487 34,000  Level FlightAware
04:05AM 46.3120 -97.5800 309° West 423 487 34,000  Level FlightAware
04:05AM 46.3500 -97.6470 309° West 423 487 34,000  Level FlightAware
04:06AM 46.4090 -97.7520 309° West 423 487 34,000  Level FlightAware
04:06AM 46.4420 -97.8140 308° West 423 487 34,000  Level FlightAware
04:07AM 46.4980 -97.9120 310° West 424 488 34,000  Level FlightAware
04:08AM 46.5400 -97.9910 308° West 424 488 34,000  Level FlightAware
04:08AM 46.5780 -98.0610 308° West 424 488 34,000  Level FlightAware
04:09AM 46.6150 -98.1300 308° West 424 488 34,000  Level FlightAware
04:10AM 46.6520 -98.1990 308° West 424 488 34,000  Level FlightAware
04:10AM 46.6900 -98.2700 308° West 424 488 34,000  Level FlightAware
04:11AM 46.7270 -98.3390 308° West 424 488 34,000  Level FlightAware
04:11AM 46.7650 -98.4100 308° West 424 488 34,000  Level FlightAware
04:12AM 46.8020 -98.4790 308° West 424 488 34,000  Level FlightAware
04:13AM 46.8400 -98.5500 308° West 424 488 34,000  Level FlightAware
04:13AM 46.8770 -98.6190 308° West 424 488 34,000  Level FlightAware
04:14AM 46.9140 -98.6880 308° West 424 488 34,000  Level FlightAware
04:14AM 46.9510 -98.7580 308° West 424 488 34,000  Level FlightAware
04:15AM 46.9860 -98.8230 308° West 424 488 34,000  Level FlightAware
04:16AM 47.0230 -98.8920 308° West 424 488 34,000  Level FlightAware
04:16AM 47.0600 -98.9620 308° West 424 488 34,000  Level FlightAware
04:17AM 47.0970 -99.0310 308° West 424 488 34,000  Level FlightAware
04:17AM 47.2342 -99.2714 308° West 421 484 34,000  Level Minneapolis Center
04:18AM 47.3036 -99.4033 308° West 421 484 34,000  Level Minneapolis Center
04:19AM 47.3753 -99.5403 308° West 421 484 34,000  Level Minneapolis Center
04:20AM 47.4467 -99.6772 308° West 421 484 34,000  Level Minneapolis Center
04:21AM 47.5181 -99.8142 308° West 421 484 34,000  Level Minneapolis Center
04:23AM 47.6050 -99.9828 307° West 420 483 34,000 720 Level Minneapolis Center
04:24AM 47.6872 -100.1433 307° West 416 479 35,800 960 Climbing Minneapolis Center
04:25AM 47.7711 -100.3075 307° West 416 479 36,000 60 Climbing Minneapolis Center
04:26AM 47.8406 -100.4442 307° West 416 479 36,000  Level Minneapolis Center
04:27AM 47.9100 -100.5819 307° West 415 478 36,000  Level Minneapolis Center
04:28AM 47.9789 -100.7192 307° West 415 478 36,000  Level Minneapolis Center
04:29AM 48.0478 -100.8569 307° West 415 478 36,000  Level Minneapolis Center
04:30AM 48.1164 -100.9953 307° West 415 478 36,000  Level Minneapolis Center
04:31AM 48.1806 -101.1250 307° West 416 479 36,000  Level Minneapolis Center
04:32AM 48.2492 -101.2642 307° West 418 481 36,000  Level Minneapolis Center
04:33AM 48.3317 -101.3881 315° West 424 488 36,000  Level Minneapolis Center
04:34AM 48.4192 -101.5078 318° Northwest 426 490 36,000  Level Minneapolis Center
04:35AM 48.5050 -101.6294 317° Northwest 427 491 36,000  Level Minneapolis Center
04:36AM 48.5936 -101.7556 317° Northwest 427 491 36,000  Level Minneapolis Center
04:37AM 48.6767 -101.8742 317° Northwest 426 490 36,000  Level Minneapolis Center
04:38AM 48.7622 -101.9964 317° Northwest 425 489 36,000  Level Minneapolis Center
04:44AM 49.2820 -102.7530 317° Northwest 424 488 36,000  Level FlightAware
04:45AM 49.3460 -102.8490 316° Northwest 424 488 36,000  Level FlightAware
04:45AM 49.3890 -102.9160 315° West 424 488 36,000  Level FlightAware
04:46AM 49.4320 -102.9810 316° Northwest 424 488 36,000  Level FlightAware
04:47AM 49.4740 -103.0460 315° West 424 488 36,000  Level FlightAware
04:47AM 49.5170 -103.1120 315° West 424 488 36,000  Level FlightAware
04:48AM 49.5590 -103.1770 315° West 424 488 36,000  Level FlightAware
04:48AM 49.6020 -103.2430 315° West 424 488 36,000  Level FlightAware
04:49AM 49.6440 -103.3080 315° West 424 488 36,000  Level FlightAware
04:50AM 49.6860 -103.3740 315° West 424 488 36,000  Level FlightAware
04:50AM 49.7290 -103.4390 316° Northwest 424 488 36,000  Level FlightAware
04:51AM 49.8550 -103.6150 318° Northwest 431 496 36,000  Level FlightAware
04:51AM 49.9150 -103.7060 316° Northwest 432 497 36,000  Level FlightAware
04:52AM 49.9600 -103.7760 315° West 435 501 36,000  Level FlightAware
04:53AM 50.0060 -103.8460 316° Northwest 437 503 36,000  Level FlightAware
04:53AM 50.0650 -103.9390 315° West 439 505 36,000  Level FlightAware
04:54AM 50.1270 -104.0340 316° Northwest 441 507 36,000  Level FlightAware
04:54AM 50.1700 -104.1020 315° West 442 509 36,000  Level FlightAware
04:55AM 50.2220 -104.1830 315° West 444 511 36,000  Level FlightAware
04:56AM 50.2810 -104.2740 315° West 447 514 36,000  Level FlightAware
04:56AM 50.3360 -104.3620 314° West 449 517 36,000  Level FlightAware
04:57AM 50.3980 -104.4600 315° West 451 519 36,000  Level FlightAware
04:58AM 50.4450 -104.5350 315° West 454 522 36,000  Level FlightAware
04:58AM 50.5060 -104.6310 315° West 455 524 36,000  Level FlightAware
04:59AM 50.5650 -104.7250 315° West 457 526 36,000  Level FlightAware
04:59AM 50.6110 -104.8000 314° West 458 527 36,000  Level FlightAware
05:00AM 50.6700 -104.9010 313° West 459 528 36,000  Level FlightAware
05:01AM 50.7210 -105.0110 306° West 458 527 36,000  Level FlightAware
05:01AM 50.7580 -105.0980 304° West 457 526 36,000  Level FlightAware
05:02AM 50.7980 -105.1890 305° West 458 527 36,000  Level FlightAware
05:02AM 50.8350 -105.2760 304° West 457 526 36,000  Level FlightAware
05:03AM 50.8830 -105.3870 304° West 456 525 36,000  Level FlightAware
05:04AM 50.9230 -105.4790 305° West 454 522 36,000  Level FlightAware
05:04AM 50.9690 -105.5880 304° West 452 520 36,000  Level FlightAware
05:05AM 51.0220 -105.7100 305° West 448 516 36,000  Level FlightAware
05:06AM 51.0560 -105.7910 304° West 446 513 36,000  Level FlightAware
05:06AM 51.0920 -105.8770 304° West 444 511 36,000  Level FlightAware
05:07AM 51.1400 -105.9910 304° West 442 509 36,000  Level FlightAware
05:07AM 51.1740 -106.0710 304° West 440 506 36,000  Level FlightAware
05:08AM 51.2230 -106.1880 304° West 438 504 36,000  Level FlightAware
05:09AM 51.2620 -106.2820 304° West 437 503 36,000  Level FlightAware
05:09AM 51.3050 -106.3850 304° West 435 501 36,000  Level FlightAware
05:10AM 51.3340 -106.4390 311° West 437 503 36,000  Level FlightAware
05:10AM 51.3870 -106.5030 323° Northwest 438 504 36,000  Level FlightAware
05:11AM 51.4810 -106.6080 325° Northwest 438 504 36,000  Level FlightAware
05:12AM 51.5310 -106.6660 324° Northwest 438 504 36,000  Level FlightAware
05:12AM 51.5820 -106.7230 325° Northwest 438 504 36,000  Level FlightAware
05:13AM 51.6330 -106.7800 325° Northwest 438 504 36,000  Level FlightAware
05:14AM 51.6870 -106.8410 325° Northwest 438 504 36,000  Level FlightAware
05:14AM 51.7390 -106.9000 325° Northwest 438 504 36,000  Level FlightAware
05:15AM 51.7900 -106.9570 325° Northwest 438 504 36,000  Level FlightAware
05:15AM 51.8400 -107.0150 324° Northwest 438 504 36,000  Level FlightAware
05:16AM 51.8910 -107.0720 325° Northwest 438 504 36,000  Level FlightAware
05:17AM 51.9420 -107.1300 325° Northwest 438 504 36,000  Level FlightAware
05:17AM 51.9960 -107.1910 325° Northwest 438 504 36,000  Level FlightAware
05:18AM 52.0460 -107.2490 325° Northwest 438 504 36,000  Level FlightAware
05:18AM 52.0990 -107.3080 326° Northwest 438 504 36,000  Level FlightAware
05:19AM 52.1490 -107.3660 325° Northwest 438 504 36,000  Level FlightAware
05:20AM 52.2020 -107.4260 325° Northwest 438 504 36,000  Level FlightAware
05:20AM 52.2520 -107.4840 325° Northwest 438 504 36,000  Level FlightAware
05:22AM 52.3333 -108.0833 325° Northwest 430 495 36,000  Level Edmonton Center
05:23AM 52.3833 -108.2333 299° West 430 495 36,000  Level Edmonton Center
05:24AM 52.4500 -108.4000 303° West 430 495 36,000  Level Edmonton Center
05:25AM 52.5333 -108.5833 307° West 430 495 36,000  Level Edmonton Center
05:26AM 52.6000 -108.7500 303° West 430 495 36,000  Level Edmonton Center
05:27AM 52.6500 -108.9000 299° West 430 495 36,000  Level Edmonton Center
05:28AM 52.7333 -109.0667 310° West 430 495 36,000  Level Edmonton Center
05:28AM 52.8000 -109.2500 301° West 440 506 36,000  Level Winnipeg Center
05:29AM 52.8000 -109.2500 301° West 430 495 36,000  Level Edmonton Center
05:29AM 52.8667 -109.4000 306° West 440 506 36,000  Level Winnipeg Center
05:31AM 52.9333 -109.5667 304° West 430 495 36,000  Level Edmonton Center
05:32AM 53.0000 -109.7500 301° West 430 495 36,000  Level Edmonton Center
05:33AM 53.0500 -109.9167 297° West 430 495 36,000  Level Edmonton Center
05:34AM 53.1333 -110.1000 307° West 430 495 36,000  Level Edmonton Center
05:39AM 53.5300 -111.0330 307° West 36,000  Level FlightAware
05:40AM 53.5650 -111.1290 302° West 429 494 36,000  Level FlightAware
05:41AM 53.6100 -111.2520 302° West 429 494 36,000  Level FlightAware
05:41AM 53.6430 -111.3450 301° West 429 494 36,000  Level FlightAware
05:42AM 53.6740 -111.4330 301° West 429 494 36,000  Level FlightAware
05:42AM 53.7050 -111.5210 301° West 429 494 36,000  Level FlightAware
05:43AM 53.7370 -111.6110 301° West 429 494 36,000  Level FlightAware
05:44AM 53.8090 -111.7870 305° West 435 501 36,000  Level FlightAware
05:44AM 53.8380 -111.8660 302° West 435 501 36,000  Level FlightAware
05:45AM 53.8810 -111.9850 302° West 436 502 36,000  Level FlightAware
05:45AM 53.9220 -112.0990 301° West 435 501 36,000  Level FlightAware
05:46AM 53.9530 -112.1850 302° West 434 499 36,000  Level FlightAware
05:46AM 53.9830 -112.2660 302° West 433 498 36,000  Level FlightAware
05:47AM 54.0220 -112.3750 301° West 432 497 36,000  Level FlightAware
05:48AM 54.0580 -112.4770 301° West 431 496 36,000  Level FlightAware
05:48AM 54.0970 -112.5890 301° West 431 496 36,000  Level FlightAware
05:49AM 54.1320 -112.6870 301° West 430 495 36,000  Level FlightAware
05:49AM 54.1710 -112.7960 301° West 428 493 36,000  Level FlightAware
05:50AM 54.2080 -112.9020 301° West 428 493 36,000  Level FlightAware
05:51AM 54.2310 -112.9690 300° West 427 491 36,000  Level FlightAware
05:51AM 54.2800 -113.1070 301° West 427 491 36,000  Level FlightAware
05:52AM 54.3190 -113.2210 300° West 428 493 36,000  Level FlightAware
05:52AM 54.3300 -113.2540 300° West 428 493 36,000  Level FlightAware
05:53AM 54.3810 -113.4020 301° West 428 493 36,000  Level FlightAware
05:54AM 54.4150 -113.5030 300° West 428 493 36,000  Level FlightAware
05:54AM 54.4030 -113.4680 120° Southeast 428 493 36,000  Level FlightAware
05:55AM 54.4330 -113.5580 300° West 428 493 36,000  Level FlightAware
05:55AM 54.4640 -113.6480 301° West 428 493 36,000  Level FlightAware
05:56AM 54.4940 -113.7380 300° West 428 493 36,000  Level FlightAware
05:57AM 54.5240 -113.8290 300° West 428 493 36,000  Level FlightAware
05:57AM 54.5550 -113.9190 301° West 428 493 36,000  Level FlightAware
05:58AM 54.5850 -114.0100 300° West 428 493 36,000  Level FlightAware
05:58AM 54.6150 -114.1000 300° West 428 493 36,000  Level FlightAware
05:59AM 54.6460 -114.1940 300° West 428 493 36,000  Level FlightAware
06:00AM 54.6760 -114.2840 300° West 428 493 36,000  Level FlightAware
06:00AM 54.7070 -114.3750 301° West 428 493 36,000  Level FlightAware
06:01AM 54.7370 -114.4660 300° West 428 493 36,000  Level FlightAware
06:01AM 54.7670 -114.5570 300° West 428 493 36,000  Level FlightAware
06:02AM 54.7980 -114.6480 301° West 428 493 36,000  Level FlightAware
06:03AM 54.8280 -114.7390 300° West 428 493 36,000  Level FlightAware
06:03AM 54.8580 -114.8300 300° West 428 493 36,000  Level FlightAware
06:05AM 55.0167 -115.4500 300° West 410 472 36,000  Level Edmonton Center
06:06AM 55.0833 -115.6500 300° West 410 472 36,000  Level Edmonton Center
06:07AM 55.1167 -115.8167 289° West 410 472 36,000  Level Edmonton Center
06:08AM 55.2000 -115.9833 311° West 400 460 36,000  Level Edmonton Center
06:09AM 55.2500 -116.1500 298° West 400 460 36,000  Level Edmonton Center
06:10AM 55.3000 -116.3500 294° West 400 460 36,000  Level Edmonton Center
06:11AM 55.3500 -116.5000 300° West 400 460 36,000  Level Edmonton Center
06:12AM 55.4000 -116.7000 294° West 400 460 36,000  Level Edmonton Center
06:13AM 55.4500 -116.8667 298° West 400 460 36,000  Level Edmonton Center
06:14AM 55.5000 -117.0333 298° West 400 460 36,000  Level Edmonton Center
06:15AM 55.5500 -117.2000 298° West 400 460 36,000  Level Edmonton Center
06:16AM 55.6000 -117.3833 296° West 400 460 36,000  Level Edmonton Center
06:17AM 55.6500 -117.5667 296° West 390 449 36,000  Level Edmonton Center
06:18AM 55.7000 -117.7500 296° West 390 449 36,000  Level Edmonton Center
06:19AM 55.7500 -117.9167 298° West 390 449 36,000  Level Edmonton Center
06:20AM 55.8000 -118.0833 298° West 390 449 36,000  Level Edmonton Center
06:21AM 55.8500 -118.2500 298° West 390 449 36,000  Level Edmonton Center
06:22AM 55.9000 -118.4333 296° West 390 449 36,000  Level Edmonton Center
06:23AM 55.9500 -118.6333 294° West 390 449 36,000  Level Edmonton Center
06:24AM 56.0000 -118.8000 298° West 390 449 36,000  Level Edmonton Center
06:25AM 56.0500 -118.9667 298° West 390 449 36,000  Level Edmonton Center
06:26AM 56.1000 -119.1500 296° West 390 449 36,000  Level Edmonton Center
06:27AM 56.1500 -119.3167 298° West 390 449 36,000  Level Edmonton Center
06:28AM 56.1833 -119.5167 287° West 390 449 36,000  Level Edmonton Center
06:29AM 56.2333 -119.6667 301° West 390 449 36,000  Level Edmonton Center
06:30AM 56.2833 -119.8667 294° West 390 449 36,000  Level Edmonton Center
06:31AM 56.3333 -120.0500 296° West 390 449 36,000  Level Edmonton Center
06:32AM 56.3833 -120.2167 299° West 390 449 36,000  Level Edmonton Center
06:33AM 56.4167 -120.4000 288° West 390 449 36,000  Level Edmonton Center
06:34AM 56.4667 -120.5667 299° West 390 449 36,000  Level Edmonton Center
06:35AM 56.5333 -120.7500 303° West 390 449 36,000  Level Edmonton Center
06:36AM 56.5833 -120.9333 296° West 390 449 36,000  Level Edmonton Center
06:37AM 56.6167 -121.1167 288° West 390 449 36,000  Level Edmonton Center
06:38AM 56.6833 -121.2667 309° West 400 460 36,000  Level Edmonton Center
06:39AM 56.7333 -121.4833 293° West 400 460 36,000  Level Edmonton Center
06:40AM 56.7833 -121.6500 299° West 400 460 36,000  Level Edmonton Center
06:41AM 56.8333 -121.8500 295° West 410 472 36,000  Level Edmonton Center
06:42AM 56.8833 -122.0167 299° West 400 460 36,000  Level Edmonton Center
06:43AM 56.9333 -122.2167 295° West 410 472 36,000  Level Edmonton Center
06:44AM 56.9833 -122.4000 297° West 410 472 36,000  Level Edmonton Center
06:45AM 57.0500 -122.5833 304° West 410 472 36,000  Level Edmonton Center
06:46AM 57.0833 -122.7667 289° West 400 460 36,000  Level Edmonton Center
06:47AM 57.1500 -122.9500 304° West 410 472 36,000  Level Edmonton Center
06:48AM 57.1833 -123.1333 289° West 400 460 36,000  Level Edmonton Center
06:49AM 57.2500 -123.3333 302° West 400 460 36,000  Level Edmonton Center
06:50AM 57.2833 -123.5167 289° West 400 460 36,000  Level Edmonton Center
06:51AM 57.3500 -123.7000 304° West 410 472 36,000  Level Edmonton Center
06:52AM 57.3833 -123.9167 286° West 410 472 36,000  Level Edmonton Center
06:53AM 57.4500 -124.0833 307° West 410 472 36,000  Level Edmonton Center
06:54AM 57.4833 -124.3000 286° West 410 472 36,000  Level Edmonton Center
06:55AM 57.5333 -124.5000 295° West 420 483 36,000  Level Edmonton Center
06:56AM 57.6000 -124.6833 304° West 430 495 36,000  Level Edmonton Center
06:57AM 57.6333 -124.8833 287° West 430 495 36,000  Level Edmonton Center
06:58AM 57.6833 -125.1000 293° West 430 495 36,000  Level Edmonton Center
07:01AM 57.7941 -125.4881 298° West  Level FlightAware Approximate
07:08AM 58.1741 -126.8780 297° West  Level FlightAware Approximate
07:09AM 58.2269 -127.0792 297° West  Level FlightAware Approximate
07:10AM 58.2794 -127.2810 296° West  Level FlightAware Approximate
07:11AM 58.3316 -127.4834 296° West  Level FlightAware Approximate
07:12AM 58.3834 -127.6864 296° West  Level FlightAware Approximate
07:13AM 58.4349 -127.8900 296° West  Level FlightAware Approximate
07:14AM 58.4788 -128.1001 290° West  Level FlightAware Approximate
07:15AM 58.5192 -128.3131 290° West  Level FlightAware Approximate
07:16AM 58.5593 -128.5267 290° West  Level FlightAware Approximate
07:17AM 58.5990 -128.7407 290° West  Level FlightAware Approximate
07:18AM 58.6384 -128.9552 290° West  Level FlightAware Approximate
07:19AM 58.6775 -129.1702 289° West  Level FlightAware Approximate
07:20AM 58.7161 -129.3857 289° West  Level FlightAware Approximate
07:21AM 58.7544 -129.6016 289° West  Level FlightAware Approximate
07:22AM 58.7924 -129.8181 289° West  Level FlightAware Approximate
07:23AM 58.8300 -130.0350 289° West  Level FlightAware Approximate
07:24AM 58.8672 -130.2523 288° West  Level FlightAware Approximate
07:25AM 58.9040 -130.4699 288° West  Level FlightAware Approximate
07:26AM 58.9404 -130.6879 288° West  Level FlightAware Approximate
07:27AM 58.9765 -130.9063 288° West  Level FlightAware Approximate
07:28AM 59.0122 -131.1252 288° West  Level FlightAware Approximate
07:29AM 59.0475 -131.3445 287° West  Level FlightAware Approximate
07:30AM 59.0825 -131.5643 287° West  Level FlightAware Approximate
07:31AM 59.1171 -131.7846 287° West  Level FlightAware Approximate
07:32AM 59.1513 -132.0053 287° West  Level FlightAware Approximate
07:33AM 59.1851 -132.2264 287° West  Level FlightAware Approximate
07:34AM 59.2186 -132.4480 287° West  Level FlightAware Approximate
07:35AM 59.2516 -132.6700 286° West  Level FlightAware Approximate
07:36AM 59.2843 -132.8924 286° West  Level FlightAware Approximate
07:37AM 59.3186 -133.1158 287° West  Level FlightAware Approximate
07:37AM 59.4500 -133.9667 287° West 480 552 36,000  Level Anchorage Center
07:38AM 59.3537 -133.3372 287° West  Level FlightAware Approximate
07:38AM 59.4833 -134.2000 286° West 470 541 36,000  Level Anchorage Center
07:39AM 59.3885 -133.5591 287° West  Level FlightAware Approximate
07:39AM 59.5167 -134.4500 285° West 470 541 36,000  Level Anchorage Center
07:40AM 59.4230 -133.7814 287° West  Level FlightAware Approximate
07:40AM 59.5667 -134.7000 292° West 470 541 36,000  Level Anchorage Center
07:41AM 59.4570 -134.0042 287° West  Level FlightAware Approximate
07:41AM 59.6000 -134.9500 285° West 470 541 36,000  Level Anchorage Center
07:42AM 59.4907 -134.2274 287° West  Level FlightAware Approximate
07:42AM 59.6333 -135.2000 285° West 470 541 36,000  Level Anchorage Center
07:43AM 59.6667 -135.4500 285° West 470 541 36,000  Level Anchorage Center
07:44AM 59.7000 -135.7000 285° West 470 541 36,000  Level Anchorage Center
07:45AM 59.7333 -135.9500 285° West 470 541 36,000  Level Anchorage Center
07:46AM 59.7667 -136.2000 285° West 470 541 36,000  Level Anchorage Center
07:47AM 59.8000 -136.4500 285° West 470 541 36,000  Level Anchorage Center
07:48AM 59.8333 -136.7000 285° West 470 541 36,000  Level Anchorage Center
07:49AM 59.8667 -136.9500 285° West 470 541 36,000  Level Anchorage Center
07:50AM 59.9000 -137.2000 285° West 460 529 36,000  Level Anchorage Center
07:51AM 59.9167 -137.4667 277° West 470 541 36,000  Level Anchorage Center
07:52AM 59.9500 -137.7167 285° West 470 541 36,000  Level Anchorage Center
07:53AM 59.9833 -137.9667 285° West 470 541 36,000  Level Anchorage Center
07:54AM 60.0167 -138.2167 285° West 470 541 36,000  Level Anchorage Center
07:55AM 60.0500 -138.4833 284° West 470 541 36,000  Level Anchorage Center
07:56AM 60.0667 -138.7333 278° West 470 541 36,000  Level Anchorage Center
07:57AM 60.1000 -139.0000 284° West 470 541 36,000  Level Anchorage Center
07:58AM 60.1167 -139.2500 278° West 470 541 36,000  Level Anchorage Center
07:59AM 60.1333 -139.5167 277° West 470 541 36,000  Level Anchorage Center
08:00AM 60.1667 -139.7667 285° West 470 541 36,000  Level Anchorage Center
08:01AM 60.1833 -140.0333 277° West 470 541 36,000  Level Anchorage Center
08:02AM 60.2000 -140.2833 278° West 470 541 36,000  Level Anchorage Center
08:03AM 60.2167 -140.5500 277° West 470 541 36,000  Level Anchorage Center
08:04AM 60.2333 -140.8000 278° West 460 529 36,000  Level Anchorage Center
08:05AM 60.2500 -141.0667 277° West 470 541 36,000  Level Anchorage Center
08:06AM 60.2667 -141.3167 278° West 460 529 36,000  Level Anchorage Center
08:07AM 60.2833 -141.5833 277° West 460 529 36,000  Level Anchorage Center
08:08AM 60.3000 -141.8333 278° West 460 529 36,000  Level Anchorage Center
08:09AM 60.3000 -142.1000 270° West 460 529 36,000  Level Anchorage Center
08:10AM 60.3167 -142.3500 278° West 460 529 36,000  Level Anchorage Center
08:11AM 60.3333 -142.6167 277° West 470 541 36,000  Level Anchorage Center
08:12AM 60.3500 -142.8667 278° West 460 529 36,000  Level Anchorage Center
08:13AM 60.3500 -143.1333 270° West 460 529 36,000  Level Anchorage Center
08:14AM 60.3667 -143.3833 278° West 460 529 36,000  Level Anchorage Center
08:15AM 60.3833 -143.6500 277° West 460 529 36,000  Level Anchorage Center
08:16AM 60.3833 -143.9000 270° West 460 529 36,000  Level Anchorage Center
08:17AM 60.4000 -144.1667 277° West 460 529 36,000  Level Anchorage Center
08:18AM 60.4167 -144.4167 278° West 460 529 36,000  Level Anchorage Center
08:19AM 60.4167 -144.6833 270° West 460 529 36,000  Level Anchorage Center
08:20AM 60.4333 -144.9333 278° West 460 529 36,000  Level Anchorage Center
08:21AM 60.4333 -145.2000 270° West 460 529 36,000  Level Anchorage Center
08:22AM 60.4500 -145.4667 277° West 460 529 36,000  Level Anchorage Center
08:23AM 60.4500 -145.7167 270° West 460 529 36,000  Level Anchorage Center
08:24AM 60.4667 -145.9833 277° West 460 529 36,000 -600 Level Anchorage Center
08:30AM 60.7170 -147.5020 277° West 506 582 32,200 -840 Descending FlightAware
08:31AM 60.7430 -147.6650 288° West 501 577 31,000 -1,920 Descending FlightAware
08:31AM 60.7690 -147.8240 289° West 502 578 29,900 -1,920 Descending FlightAware
08:32AM 60.7950 -147.9880 288° West 506 582 28,700 -2,040 Descending FlightAware
08:32AM 60.8170 -148.1260 288° West 501 577 27,700 -2,520 Descending FlightAware
08:33AM 60.8440 -148.2970 288° West 495 570 25,900 -2,580 Descending FlightAware
08:33AM 60.8650 -148.4340 288° West 478 550 24,700 -2,220 Descending FlightAware
08:34AM 60.8890 -148.5900 288° West 464 534 23,400 -2,520 Descending FlightAware
08:35AM 60.9120 -148.7380 288° West 456 525 21,700 -2,520 Descending FlightAware
08:35AM 60.9350 -148.8910 287° West 437 503 20,300 -2,340 Descending FlightAware
08:36AM 60.9530 -149.0170 286° West 427 491 19,000 -2,580 Descending FlightAware
08:36AM 60.9740 -149.1550 287° West 420 483 17,400 -2,580 Descending FlightAware
08:37AM 60.9830 -149.2340 283° West 420 483 16,600 -2,160 Descending FlightAware
08:37AM 60.9910 -149.3730 277° West 410 472 15,400 -2,040 Descending FlightAware
08:38AM 60.9980 -149.4880 277° West 403 464 14,400 -1,980 Descending FlightAware
08:39AM 61.0070 -149.6370 277° West 382 440 13,100 -1,800 Descending FlightAware
08:39AM 61.0140 -149.7540 277° West 337 388 12,200 -1,500 Descending FlightAware
08:40AM 61.0210 -149.8660 277° West 299 344 11,300 -1,440 Descending FlightAware
08:40AM 61.0250 -149.9520 276° West 278 320 10,600 -1,380 Descending FlightAware
08:41AM 61.0280 -150.0460 274° West 259 298 9,800 -1,200 Descending FlightAware
08:41AM 61.0290 -150.0920 273° West 241 277 9,500 -780 Descending FlightAware
08:42AM 61.0300 -150.1360 273° West 216 249 9,300 -1,020 Descending FlightAware
08:42AM 61.0300 -150.1790 270° West 205 236 8,800 -1,500 Descending FlightAware
08:42AM 61.0320 -150.2030 280° West 198 228 8,400 -1,920 Descending FlightAware
08:42AM 61.0370 -150.2350 288° West 196 226 7,800 -1,980 Descending FlightAware
08:43AM 61.0450 -150.2830 289° West 194 223 7,000 -1,860 Descending FlightAware
08:43AM 61.0500 -150.3190 286° West 193 222 6,400 -1,860 Descending FlightAware
08:44AM 61.0600 -150.3510 303° West 184 212 5,700 -1,800 Descending FlightAware
08:44AM 61.0660 -150.3570 334° Northwest 178 205 5,500 -1,500 Descending FlightAware
08:44AM 61.0690 -150.3570 360° North 176 203 5,400 -1,800 Descending FlightAware
08:44AM 61.0900 -150.3540 North 178 205 4,600 -1,620 Descending FlightAware
08:45AM 61.1050 -150.3500 North 178 205 4,200 -1,500 Descending FlightAware
08:45AM 61.1210 -150.3470 North 168 193 3,700 -1,440 Descending FlightAware
08:45AM 61.1350 -150.3370 19° North 165 190 3,300 -900 Descending FlightAware
08:45AM 61.1390 -150.3270 50° Northeast 169 194 3,300 -660 Level FlightAware
08:46AM 61.1450 -150.2960 68° East 173 199 3,000 -780 Descending FlightAware
08:46AM 61.1520 -150.2660 64° Northeast 171 197 2,800 -840 Descending FlightAware
08:46AM 61.1600 -150.2320 64° Northeast 162 186 2,400 -960 Descending FlightAware
08:47AM 61.1660 -150.2050 65° Northeast 145 167 2,100 -900 Descending FlightAware
08:47AM 61.1670 -150.1950 78° East 144 166 2,000 -840 Descending FlightAware
08:47AM 61.1670 -150.1760 90° East 141 162 1,800 -780 Descending FlightAware
08:47AM 61.1680 -150.1400 87° East 141 162 1,500 -720 Descending FlightAware
08:48AM 61.1680 -150.0950 90° East 136 157 1,100 -660 Descending FlightAware
08:48AM 61.1680 -150.0810 90° East 134 154 1,000 -600 Descending FlightAware
08:49AM 61.1680 -150.0310 90° East 130 150 -1,560 Descending FlightAware
08:49AM 61.1680 -150.0190 90° East 88 101  Level FlightAware